createdAt,value
2022-09-15T20:03:44.829Z,97222.25
2022-09-15T20:06:17.755Z,97228.09
2022-09-15T20:08:52.708Z,97229.69
2022-09-15T20:11:26.677Z,97228.44
2022-09-15T20:13:59.780Z,97241.34
2022-09-15T20:16:32.915Z,97233.91
2022-09-15T20:19:07.306Z,97225.69
2022-09-15T20:21:56.860Z,97244.09
2022-09-15T20:24:29.962Z,97240.22
2022-09-15T20:27:03.071Z,97239.75
2022-09-15T20:29:35.819Z,97239.75
2022-09-15T20:32:08.656Z,97250.75
2022-09-15T20:34:43.104Z,97249.94
2022-09-15T20:37:16.003Z,97244.44
2022-09-15T20:39:51.298Z,97246.41
2022-09-15T20:42:24.373Z,97244.00
2022-09-15T20:44:57.453Z,97251.44
2022-09-15T20:47:30.305Z,97256.94
2022-09-15T20:50:04.703Z,97256.94
2022-09-15T20:52:38.516Z,97245.94
2022-09-15T20:55:20.337Z,97255.31
2022-09-15T20:57:54.111Z,97261.97
2022-09-15T21:00:28.617Z,97254.53
2022-09-15T21:03:04.631Z,97260.81
2022-09-15T21:05:37.663Z,97262.75
2022-09-15T21:08:11.080Z,97264.69
2022-09-15T21:10:45.136Z,97275.69
2022-09-15T21:13:19.090Z,97270.19
2022-09-15T21:15:57.034Z,97279.25
2022-09-15T21:18:33.898Z,97276.50
2022-09-15T21:21:08.847Z,97280.38
2022-09-15T21:23:43.489Z,97281.19
2022-09-15T21:26:17.247Z,97285.06
2022-09-15T21:28:50.488Z,97296.06
2022-09-15T21:31:25.623Z,97284.28
2022-09-15T21:33:59.228Z,97294.94
2022-09-15T21:36:32.597Z,97298.00
2022-09-15T21:39:05.367Z,97297.69
2022-09-15T21:41:38.323Z,97309.16
2022-09-15T21:44:12.218Z,97303.19
2022-09-15T21:46:47.027Z,97303.19
2022-09-15T21:49:20.405Z,97305.25
2022-09-15T21:51:53.166Z,97308.00
2022-09-15T21:54:26.549Z,97309.16
2022-09-15T21:57:00.031Z,97313.03
2022-09-15T21:59:33.052Z,97324.84
2022-09-15T22:02:06.236Z,97323.22
2022-09-15T22:04:39.652Z,97323.22
2022-09-15T22:07:15.438Z,97330.66
2022-09-15T22:09:48.423Z,97325.16
2022-09-15T22:12:21.295Z,97332.59
2022-09-15T22:14:54.115Z,97323.53
2022-09-15T22:17:27.152Z,97327.44
2022-09-15T22:20:01.190Z,97332.94
2022-09-15T22:22:34.176Z,97331.78
2022-09-15T22:25:08.007Z,97333.72
2022-09-15T22:27:40.992Z,97336.81
2022-09-15T22:30:13.820Z,97338.41
2022-09-15T22:32:46.681Z,97338.75
2022-09-15T22:35:19.454Z,97339.56
2022-09-15T22:37:52.371Z,97345.06
2022-09-15T22:40:25.201Z,97326.16
2022-09-15T22:42:57.861Z,97340.69
2022-09-15T22:45:30.692Z,97336.81
2022-09-15T22:48:03.669Z,97344.56
2022-09-15T22:50:36.534Z,97343.78
2022-09-15T22:53:09.402Z,97344.09
2022-09-15T22:55:42.768Z,97350.41
2022-09-15T22:58:15.792Z,97344.91
2022-09-15T23:00:49.247Z,97350.41
2022-09-15T23:03:21.954Z,97357.84
2022-09-15T23:05:59.261Z,97356.69
2022-09-15T23:08:33.245Z,97363.34
2022-09-15T23:11:13.696Z,97361.72
2022-09-15T23:13:46.627Z,97353.47
2022-09-15T23:16:21.290Z,97352.66
2022-09-15T23:18:54.588Z,97358.97
2022-09-15T23:21:28.199Z,97354.63
2022-09-15T23:24:01.456Z,97360.13
2022-09-15T23:26:34.393Z,97358.16
2022-09-15T23:29:07.356Z,97358.53
2022-09-15T23:31:40.237Z,97357.72
2022-09-15T23:34:13.138Z,97364.81
2022-09-15T23:36:45.926Z,97363.22
2022-09-15T23:39:19.039Z,97368.72
2022-09-15T23:41:51.857Z,97369.50
2022-09-15T23:44:24.710Z,97375.00
2022-09-15T23:46:57.583Z,97377.28
2022-09-15T23:49:30.724Z,97372.59
2022-09-15T23:52:03.729Z,97374.53
2022-09-15T23:54:36.750Z,97381.63
2022-09-15T23:57:11.644Z,97387.13
2022-09-15T23:59:44.377Z,97381.16
